Terminal Aerodrome Forecast
Issued by NWS Grand Forks, ND

Home | Current Version | Previous Version | Graphics & Text | Print | Product List | Glossary On
Versions: 1 2 3 4 5 6 7 8 9 10 11 12 13 14 15 16 17 18 19 20 21 22 23 24 25 26
000
FTUS43 KFGF 041855 AAA
TAFGFK
TAF AMD
KGFK 041855Z 0419/0518 17010KT P6SM BKN025
      TEMPO 0420/0422 -TSRA BKN021CB
     FM050100 VRB06KT P6SM BKN040
      TEMPO 0509/0512 4SM BR SCT012
     FM051500 03008KT P6SM BKN016=

USA.gov is the U.S. government's official web portal to all federal, state and local government web resources and services.